Time;durP1;ratioP1;P1;durP2;ratioP2;P2;SDS_P1;SDS_P2;PMS_P1;PMS_P2;Temp;Humidity;BMP_temperature;BMP_pressure;BME280_temperature;BME280_humidity;BME280_pressure;Samples;Min_cycle;Max_cycle;Signal;HPM_P1;HPM_P2
2023/09/19 00:00:35;;;;;;;12.80;8.90;;;;;;;17.25;43.76;101086.66;108145;1288;21999;-60
2023/09/19 00:03:01;;;;;;;14.90;9.30;;;;;;;17.17;43.97;101087.08;108144;1287;21989;-65
2023/09/19 00:05:27;;;;;;;11.40;9.20;;;;;;;17.13;44.19;101085.22;108136;1287;22026;-60
2023/09/19 00:07:54;;;;;;;14.90;9.30;;;;;;;17.12;44.24;101081.00;108140;1288;21987;-60
2023/09/19 00:10:21;;;;;;;12.80;8.70;;;;;;;17.12;44.40;101078.88;108108;1288;21995;-65
2023/09/19 00:12:47;;;;;;;14.00;9.20;;;;;;;17.12;44.46;101079.05;108134;1287;21997;-65
2023/09/19 00:15:13;;;;;;;12.80;8.70;;;;;;;17.15;44.40;101081.43;108092;1287;21989;-66
2023/09/19 00:17:40;;;;;;;11.00;8.00;;;;;;;17.19;44.46;101083.79;108174;1283;21992;-59
2023/09/19 00:20:12;;;;;;;11.80;8.90;;;;;;;17.23;44.31;101081.02;108156;1283;22025;-65
2023/09/19 00:22:44;;;;;;;15.20;8.60;;;;;;;17.22;44.22;101081.95;108129;1288;21992;-59
2023/09/19 00:25:11;;;;;;;11.50;8.20;;;;;;;17.18;44.15;101080.13;108151;1288;21989;-65
2023/09/19 00:27:42;;;;;;;13.00;8.70;;;;;;;17.12;43.98;101082.05;108129;1283;21995;-60
2023/09/19 00:30:15;;;;;;;13.00;9.20;;;;;;;17.07;44.03;101082.53;108080;1288;21989;-59
2023/09/19 00:32:42;;;;;;;11.00;9.10;;;;;;;17.01;44.09;101078.27;108121;1288;22034;-59
2023/09/19 00:35:11;;;;;;;13.80;8.30;;;;;;;16.94;44.11;101075.79;108150;1277;21987;-59
2023/09/19 00:37:37;;;;;;;11.90;8.70;;;;;;;16.88;44.14;101076.11;108133;1287;21990;-64
2023/09/19 00:40:05;;;;;;;13.70;10.00;;;;;;;16.88;44.33;101073.11;108142;1288;24353;-59
2023/09/19 00:42:31;;;;;;;14.20;9.40;;;;;;;16.87;44.49;101069.77;108185;1283;23097;-65
2023/09/19 00:45:03;;;;;;;14.20;9.00;;;;;;;16.80;44.40;101067.48;108130;1280;21990;-66
2023/09/19 00:47:29;;;;;;;13.10;9.80;;;;;;;16.70;44.49;101065.45;108101;1288;21989;-59
2023/09/19 00:49:55;;;;;;;14.60;10.00;;;;;;;16.67;44.80;101066.06;108094;1287;22046;-65
2023/09/19 00:52:21;;;;;;;13.10;9.50;;;;;;;16.69;44.89;101069.02;108092;1288;21990;-59
2023/09/19 00:54:47;;;;;;;12.50;9.60;;;;;;;16.71;44.84;101067.73;108132;1283;21995;-60
2023/09/19 00:57:14;;;;;;;12.80;8.90;;;;;;;16.68;44.52;101067.27;108086;1279;21989;-59
2023/09/19 00:59:42;;;;;;;14.10;8.60;;;;;;;16.60;44.43;101073.69;108111;1288;23094;-65
2023/09/19 01:02:08;;;;;;;12.40;9.30;;;;;;;16.52;44.52;101076.90;108089;1285;21995;-59
2023/09/19 01:04:34;;;;;;;12.00;9.20;;;;;;;16.47;44.57;101075.63;108147;1283;22028;-65
2023/09/19 01:06:59;;;;;;;12.30;9.50;;;;;;;16.39;44.71;101076.70;108116;1288;21965;-66
2023/09/19 01:09:25;;;;;;;16.50;9.10;;;;;;;16.29;44.94;101081.02;108152;1283;21989;-65
2023/09/19 01:11:50;;;;;;;15.00;11.10;;;;;;;16.24;45.25;101079.21;107941;1288;21994;-59
2023/09/19 01:14:36;;;;;;;15.60;10.20;;;;;;;16.22;45.59;101079.41;107969;1288;21992;-59
2023/09/19 01:17:24;;;;;;;18.20;11.40;;;;;;;16.24;45.80;101083.79;107947;1284;22000;-59
2023/09/19 01:19:55;;;;;;;17.50;9.50;;;;;;;16.29;46.09;101076.59;108115;1288;22460;-65
2023/09/19 01:22:37;;;;;;;14.40;10.70;;;;;;;16.36;45.95;101074.29;108119;1288;21992;-59
2023/09/19 01:25:48;;;;;;;14.00;9.00;;;;;;;16.40;45.98;101077.19;108120;1283;22090;-59
2023/09/19 01:28:47;;;;;;;12.40;9.00;;;;;;;16.36;45.54;101078.18;107924;1287;22038;-66
2023/09/19 01:31:12;;;;;;;12.30;9.00;;;;;;;16.25;45.47;101078.64;108100;1287;22020;-66
2023/09/19 01:34:08;;;;;;;14.00;9.20;;;;;;;16.16;45.74;101078.48;107710;1288;21990;-59
2023/09/19 01:36:36;;;;;;;13.10;8.50;;;;;;;16.16;45.92;101078.51;108001;1288;21990;-66
2023/09/19 01:39:13;;;;;;;14.60;8.60;;;;;;;16.22;46.08;101076.77;108130;1288;22026;-59
2023/09/19 01:41:45;;;;;;;12.00;8.70;;;;;;;16.22;45.87;101073.73;108103;1287;21998;-59
2023/09/19 01:44:15;;;;;;;15.70;8.50;;;;;;;16.18;45.77;101072.62;108170;1283;21987;-66
2023/09/19 01:46:41;;;;;;;18.10;9.60;;;;;;;16.11;45.73;101071.00;108143;1283;22009;-59
2023/09/19 01:49:59;;;;;;;19.60;9.50;;;;;;;16.08;46.02;101067.74;108100;1280;22047;-66
2023/09/19 01:52:28;;;;;;;13.40;9.50;;;;;;;16.08;46.35;101067.19;107726;1288;21994;-59
2023/09/19 01:54:57;;;;;;;13.50;10.10;;;;;;;16.11;46.52;101071.55;108186;1288;21999;-60
2023/09/19 01:57:52;;;;;;;16.30;9.90;;;;;;;16.16;46.79;101071.77;108115;1280;21993;-59
2023/09/19 02:00:18;;;;;;;12.50;9.40;;;;;;;16.23;46.87;101072.66;108112;1288;21987;-65
2023/09/19 02:02:45;;;;;;;12.80;9.20;;;;;;;16.29;46.87;101073.59;107857;1279;21995;-59
2023/09/19 02:05:12;;;;;;;11.80;9.20;;;;;;;16.34;46.94;101069.73;108143;1284;22044;-65
2023/09/19 02:07:38;;;;;;;12.40;9.10;;;;;;;16.40;46.96;101063.93;108088;1283;21989;-66
2023/09/19 02:10:09;;;;;;;14.60;9.60;;;;;;;16.43;46.88;101064.73;108185;1280;21982;-66
2023/09/19 02:12:35;;;;;;;22.90;10.40;;;;;;;16.46;46.92;101063.95;108140;1288;22069;-59
2023/09/19 02:15:01;;;;;;;16.50;10.40;;;;;;;16.49;47.10;101066.70;108102;1283;21997;-58
2023/09/19 02:17:27;;;;;;;13.00;11.30;;;;;;;16.52;47.11;101065.05;108140;1281;21989;-59
2023/09/19 02:19:54;;;;;;;16.00;10.80;;;;;;;16.55;47.13;101064.96;108126;1280;22047;-58
2023/09/19 02:22:22;;;;;;;13.40;10.20;;;;;;;16.59;47.23;101060.23;108178;1287;21993;-59
2023/09/19 02:24:48;;;;;;;15.30;10.30;;;;;;;16.62;47.09;101057.48;108108;1283;24303;-58
2023/09/19 02:27:16;;;;;;;12.50;9.20;;;;;;;16.62;46.85;101060.85;108105;1287;21984;-58
2023/09/19 02:29:42;;;;;;;13.20;8.90;;;;;;;16.55;46.36;101067.24;108135;1276;22010;-58
2023/09/19 02:32:09;;;;;;;13.50;9.80;;;;;;;16.44;46.36;101066.14;108122;1280;21987;-65
2023/09/19 02:34:36;;;;;;;11.80;9.40;;;;;;;16.32;46.33;101065.02;108075;1288;22040;-59
2023/09/19 02:37:13;;;;;;;13.20;9.00;;;;;;;16.25;46.43;101064.66;108128;1280;21993;-58
2023/09/19 02:39:39;;;;;;;13.00;9.10;;;;;;;16.24;46.67;101068.05;108104;1283;21995;-65
2023/09/19 02:42:04;;;;;;;11.60;8.80;;;;;;;16.26;46.75;101067.46;108177;1287;22030;-61
2023/09/19 02:44:30;;;;;;;11.30;9.10;;;;;;;16.29;46.88;101068.98;108133;1280;21986;-58
2023/09/19 02:46:57;;;;;;;14.50;9.50;;;;;;;16.30;46.81;101062.41;108106;1283;22025;-65
2023/09/19 02:49:23;;;;;;;12.50;9.80;;;;;;;16.27;46.76;101064.95;108143;1287;21995;-59
2023/09/19 02:51:48;;;;;;;14.90;10.00;;;;;;;16.20;46.65;101064.95;108089;1277;21993;-66
2023/09/19 02:54:15;;;;;;;15.30;11.00;;;;;;;16.13;46.92;101061.03;108117;1288;21987;-65
2023/09/19 02:56:41;;;;;;;15.50;10.20;;;;;;;16.10;47.09;101062.20;108143;1286;22113;-59
2023/09/19 02:59:07;;;;;;;13.60;10.10;;;;;;;16.10;47.32;101054.93;108126;1283;22001;-57
2023/09/19 03:01:33;;;;;;;281.20;224.30;;;;;;;16.14;47.42;101053.59;108079;1287;23203;-58
2023/09/19 03:03:59;;;;;;;127.50;110.20;;;;;;;16.17;47.48;101051.73;108074;1283;21989;-66
2023/09/19 03:06:24;;;;;;;24.20;18.70;;;;;;;16.16;47.46;101050.88;108100;1286;22016;-58
2023/09/19 03:08:51;;;;;;;18.00;13.80;;;;;;;16.16;47.51;101049.30;108089;1278;22005;-58
2023/09/19 03:11:21;;;;;;;19.50;12.90;;;;;;;16.16;47.67;101051.24;108169;1283;21990;-66
2023/09/19 03:13:55;;;;;;;16.10;11.20;;;;;;;16.16;47.82;101048.92;108141;1287;22001;-59
2023/09/19 03:16:25;;;;;;;17.10;11.70;;;;;;;16.16;47.70;101053.19;108124;1283;22021;-67
2023/09/19 03:18:51;;;;;;;20.00;11.70;;;;;;;16.16;47.88;101051.23;108128;1288;22102;-66
2023/09/19 03:21:17;;;;;;;18.70;12.10;;;;;;;16.18;48.07;101052.41;108159;1283;21990;-59
2023/09/19 03:23:45;;;;;;;22.00;12.90;;;;;;;16.23;48.23;101050.36;108115;1281;22000;-58
2023/09/19 03:26:12;;;;;;;18.30;13.10;;;;;;;16.28;48.36;101049.01;108109;1275;22328;-67
2023/09/19 03:28:38;;;;;;;21.20;14.80;;;;;;;16.32;48.48;101050.14;108132;1284;22466;-58
2023/09/19 03:31:05;;;;;;;22.40;15.20;;;;;;;16.34;48.42;101050.08;108132;1283;21996;-58
2023/09/19 03:33:32;;;;;;;30.70;14.90;;;;;;;16.36;48.48;101047.00;108072;1277;23615;-67
2023/09/19 03:35:58;;;;;;;26.90;17.10;;;;;;;16.39;48.38;101045.15;108158;1280;23541;-58
2023/09/19 03:38:25;;;;;;;29.10;16.30;;;;;;;16.40;48.27;101044.80;108071;1283;21992;-58
2023/09/19 03:40:51;;;;;;;27.10;15.00;;;;;;;16.41;48.30;101043.36;108119;1283;21992;-67
2023/09/19 03:43:17;;;;;;;21.70;14.90;;;;;;;16.43;48.46;101038.00;108192;1288;22051;-67
2023/09/19 03:45:43;;;;;;;22.90;14.70;;;;;;;16.44;48.32;101035.48;108170;1288;21995;-59
2023/09/19 03:48:09;;;;;;;21.10;14.40;;;;;;;16.44;48.37;101034.77;108162;1283;21991;-66
2023/09/19 03:50:35;;;;;;;23.00;15.30;;;;;;;16.43;48.30;101035.85;108130;1288;21995;-59
2023/09/19 03:53:00;;;;;;;24.50;15.30;;;;;;;16.44;48.31;101033.17;108132;1280;22002;-63
2023/09/19 03:55:26;;;;;;;18.70;13.80;;;;;;;16.44;48.38;101030.87;108094;1276;22004;-57
2023/09/19 03:57:52;;;;;;;20.90;13.00;;;;;;;16.44;48.45;101033.34;108099;1288;22013;-66
2023/09/19 04:00:21;;;;;;;23.40;13.80;;;;;;;16.46;48.44;101032.08;108120;1288;21994;-66
2023/09/19 04:02:48;;;;;;;21.50;14.20;;;;;;;16.46;48.64;101032.93;108099;1287;22179;-59
2023/09/19 04:05:14;;;;;;;24.80;15.30;;;;;;;16.48;48.62;101030.08;108089;1288;21993;-66
2023/09/19 04:07:39;;;;;;;20.20;15.40;;;;;;;16.47;48.61;101029.89;108098;1280;21994;-58
2023/09/19 04:10:08;;;;;;;25.00;15.50;;;;;;;16.47;48.63;101025.29;108081;1277;21985;-58
2023/09/19 04:12:34;;;;;;;22.50;15.80;;;;;;;16.50;48.79;101023.98;108127;1283;21997;-58
2023/09/19 04:15:00;;;;;;;19.30;14.40;;;;;;;16.53;48.82;101018.05;108070;1287;21994;-68
2023/09/19 04:17:25;;;;;;;27.60;14.00;;;;;;;16.56;48.93;101015.66;108072;1283;22673;-67
2023/09/19 04:19:51;;;;;;;26.50;13.80;;;;;;;16.61;49.00;101017.30;108124;1277;22002;-58
2023/09/19 04:22:16;;;;;;;23.50;13.70;;;;;;;16.68;48.95;101019.77;108074;1288;22015;-57
2023/09/19 04:24:42;;;;;;;30.20;14.10;;;;;;;16.77;49.01;101024.14;108083;1288;21990;-65
2023/09/19 04:27:09;;;;;;;52.10;15.00;;;;;;;16.85;49.10;101018.77;108120;1279;21987;-66
2023/09/19 04:29:35;;;;;;;27.10;14.60;;;;;;;16.94;49.16;101017.29;108097;1287;21988;-66
2023/09/19 04:32:00;;;;;;;24.70;13.80;;;;;;;17.02;49.43;101019.02;108113;1288;22000;-66
2023/09/19 04:34:27;;;;;;;22.00;12.80;;;;;;;17.09;49.40;101019.38;108087;1283;21992;-66
2023/09/19 04:36:53;;;;;;;22.00;13.80;;;;;;;17.17;49.56;101015.95;108144;1288;21990;-66
2023/09/19 04:39:19;;;;;;;24.90;14.50;;;;;;;17.25;49.66;101016.60;108118;1288;21998;-66
2023/09/19 04:41:47;;;;;;;24.40;14.10;;;;;;;17.34;49.96;101017.73;108099;1286;22001;-58
2023/09/19 04:44:13;;;;;;;23.30;14.20;;;;;;;17.45;50.21;101014.73;108137;1288;21994;-59
2023/09/19 04:46:39;;;;;;;19.80;14.10;;;;;;;17.56;50.41;101011.73;108086;1282;22027;-60
2023/09/19 04:49:04;;;;;;;20.10;15.10;;;;;;;17.69;50.64;101012.95;108099;1283;21990;-58
2023/09/19 04:51:34;;;;;;;24.60;14.40;;;;;;;17.81;50.82;101011.13;108096;1288;21992;-58
2023/09/19 04:54:00;;;;;;;24.10;14.20;;;;;;;17.94;50.87;101003.27;107961;1279;22021;-65
2023/09/19 04:56:28;;;;;;;20.90;13.50;;;;;;;18.08;51.11;101001.05;108140;1280;22459;-64
2023/09/19 04:58:54;;;;;;;18.90;12.60;;;;;;;18.24;50.97;100998.94;108102;1286;21997;-58
2023/09/19 05:01:22;;;;;;;18.50;12.70;;;;;;;18.39;51.19;100995.20;108137;1288;22008;-66
2023/09/19 05:03:52;;;;;;;20.20;13.20;;;;;;;18.56;51.27;100992.32;108162;1283;21990;-70
2023/09/19 05:06:21;;;;;;;22.80;12.50;;;;;;;18.72;51.37;100989.57;108135;1283;22084;-58
2023/09/19 05:08:53;;;;;;;24.70;11.30;;;;;;;18.90;51.67;100987.70;108100;1280;21999;-66
2023/09/19 05:11:22;;;;;;;16.70;11.70;;;;;;;19.10;51.76;100986.27;108089;1283;22096;-66
2023/09/19 05:13:50;;;;;;;19.40;11.60;;;;;;;19.30;51.95;100991.52;108113;1288;22005;-58
2023/09/19 05:16:19;;;;;;;16.20;9.60;;;;;;;19.53;51.96;100990.47;108194;1280;21986;-66
2023/09/19 05:18:44;;;;;;;17.50;10.40;;;;;;;19.76;52.00;100987.23;108086;1286;21991;-65
2023/09/19 05:21:10;;;;;;;11.50;8.60;;;;;;;19.99;52.04;100986.32;108110;1280;21998;-60
2023/09/19 05:23:36;;;;;;;14.10;8.50;;;;;;;20.20;51.89;100983.63;108079;1280;21999;-66
2023/09/19 05:26:03;;;;;;;16.80;8.40;;;;;;;20.40;51.53;100980.84;108116;1287;22007;-64
2023/09/19 05:28:29;;;;;;;17.40;7.20;;;;;;;20.59;51.44;100979.26;108148;1283;21999;-57
2023/09/19 05:30:55;;;;;;;18.90;6.80;;;;;;;20.78;50.99;100980.21;108136;1288;22028;-60
2023/09/19 05:33:21;;;;;;;25.60;6.60;;;;;;;20.95;50.55;100975.55;108115;1288;22003;-58
2023/09/19 05:35:50;;;;;;;19.50;6.90;;;;;;;21.14;50.38;100976.42;108104;1276;22267;-64
2023/09/19 05:38:18;;;;;;;23.00;6.60;;;;;;;21.34;50.13;100972.47;108127;1283;21989;-64
2023/09/19 05:40:45;;;;;;;18.50;6.50;;;;;;;21.53;49.83;100973.20;108147;1284;21995;-58
2023/09/19 05:43:10;;;;;;;24.30;7.50;;;;;;;21.70;49.65;100968.25;108081;1283;21974;-64
2023/09/19 05:45:37;;;;;;;22.00;6.70;;;;;;;21.86;49.28;100962.99;108080;1287;22003;-62
2023/09/19 05:48:14;;;;;;;15.90;6.20;;;;;;;22.03;49.14;100965.00;108148;1288;21990;-64
2023/09/19 05:50:40;;;;;;;18.30;7.00;;;;;;;22.21;48.74;100963.54;108135;1288;22057;-64
2023/09/19 05:53:06;;;;;;;13.50;5.70;;;;;;;22.42;48.49;100962.29;108107;1286;22004;-65
2023/09/19 05:55:32;;;;;;;10.30;5.60;;;;;;;22.63;48.26;100961.95;108094;1283;21993;-64
2023/09/19 05:57:57;;;;;;;10.30;5.40;;;;;;;22.82;47.88;100964.30;108097;1279;21980;-60
2023/09/19 06:00:23;;;;;;;10.60;5.60;;;;;;;23.03;47.77;100967.10;108143;1287;22028;-59
2023/09/19 06:02:53;;;;;;;10.00;6.20;;;;;;;23.25;47.72;100969.10;108132;1280;22454;-60
2023/09/19 06:05:19;;;;;;;10.30;5.50;;;;;;;23.49;47.32;100970.83;108216;1280;21999;-65
2023/09/19 06:07:45;;;;;;;9.10;5.40;;;;;;;23.73;47.11;100966.96;108142;1286;21981;-62
2023/09/19 06:10:11;;;;;;;9.50;5.90;;;;;;;23.99;47.13;100971.92;108127;1287;22024;-59
2023/09/19 06:12:40;;;;;;;9.90;5.40;;;;;;;24.23;46.90;100970.45;108090;1280;22027;-63
2023/09/19 06:15:08;;;;;;;6.70;5.10;;;;;;;24.49;46.52;100972.86;108202;1283;21989;-63
2023/09/19 06:17:37;;;;;;;15.90;6.00;;;;;;;24.75;46.09;100974.00;108114;1288;21995;-58
2023/09/19 06:20:12;;;;;;;7.40;5.40;;;;;;;25.01;45.71;100972.89;108117;1280;22014;-58
2023/09/19 06:22:39;;;;;;;8.60;5.50;;;;;;;25.32;45.71;100970.41;108110;1286;22306;-59
2023/09/19 06:25:05;;;;;;;9.70;5.30;;;;;;;25.61;45.68;100971.06;108174;1288;21987;-62
2023/09/19 06:27:31;;;;;;;8.80;5.80;;;;;;;25.86;45.49;100968.45;107854;1286;21989;-59
2023/09/19 06:29:56;;;;;;;9.50;5.50;;;;;;;26.13;45.22;100965.45;108127;1288;21986;-58
2023/09/19 06:32:28;;;;;;;9.70;5.60;;;;;;;26.37;45.13;100961.94;108084;1278;22028;-63
2023/09/19 06:34:54;;;;;;;13.30;5.50;;;;;;;26.63;44.80;100961.08;108100;1283;21996;-63
2023/09/19 06:37:22;;;;;;;7.90;5.50;;;;;;;26.87;44.57;100958.81;108098;1288;21994;-63
2023/09/19 06:39:50;;;;;;;6.70;5.10;;;;;;;27.10;44.40;100956.70;108117;1287;21992;-64
2023/09/19 06:42:17;;;;;;;9.80;5.90;;;;;;;27.32;44.48;100955.41;108131;1277;21999;-58
2023/09/19 06:44:43;;;;;;;7.60;5.80;;;;;;;27.52;44.42;100951.05;108106;1282;21994;-64
2023/09/19 06:47:10;;;;;;;6.50;5.20;;;;;;;27.77;44.14;100953.37;108117;1283;22024;-65
2023/09/19 06:49:36;;;;;;;7.70;5.30;;;;;;;28.00;43.94;100953.21;108179;1288;22004;-59
2023/09/19 06:52:02;;;;;;;6.40;5.50;;;;;;;28.20;43.50;100960.36;108127;1283;22006;-64
2023/09/19 06:54:31;;;;;;;8.80;5.30;;;;;;;28.39;43.06;100954.61;108152;1287;22003;-59
2023/09/19 06:57:00;;;;;;;6.10;4.80;;;;;;;28.57;43.15;100953.58;108161;1287;21999;-64
2023/09/19 06:59:25;;;;;;;8.50;4.80;;;;;;;28.75;42.67;100954.32;108151;1283;21998;-58
2023/09/19 07:01:51;;;;;;;6.10;4.70;;;;;;;28.91;41.73;100948.02;108135;1288;21992;-64
2023/09/19 07:04:19;;;;;;;8.90;4.50;;;;;;;29.09;41.04;100952.10;108124;1280;21992;-65
2023/09/19 07:06:49;;;;;;;8.10;4.40;;;;;;;29.29;40.67;100956.98;108166;1288;21997;-64
2023/09/19 07:09:15;;;;;;;;;;;;;;;29.46;40.39;100959.46;108136;1288;21971;-64
2023/09/19 07:11:41;;;;;;;8.10;5.30;;;;;;;29.57;40.48;100957.30;108167;1287;22021;-58
2023/09/19 07:14:06;;;;;;;6.20;4.70;;;;;;;29.67;39.87;100955.67;108113;1286;21995;-59
2023/09/19 07:16:32;;;;;;;7.40;5.00;;;;;;;29.76;39.66;100952.59;107896;1288;21988;-58
2023/09/19 07:18:58;;;;;;;6.80;4.80;;;;;;;29.83;38.96;100945.64;108069;1288;22009;-64
2023/09/19 07:21:24;;;;;;;7.80;5.20;;;;;;;29.89;39.01;100945.66;108108;1288;21987;-64
2023/09/19 07:23:49;;;;;;;10.40;4.70;;;;;;;30.01;38.80;100940.00;108121;1283;21993;-59
2023/09/19 07:26:16;;;;;;;7.00;6.30;;;;;;;30.15;38.47;100940.27;108110;1288;21989;-59
2023/09/19 07:28:42;;;;;;;4.90;4.20;;;;;;;30.25;38.23;100945.92;108139;1287;21990;-64
2023/09/19 07:31:09;;;;;;;5.40;3.50;;;;;;;30.37;37.50;100941.99;108135;1280;22459;-59
2023/09/19 07:33:36;;;;;;;7.10;4.30;;;;;;;30.44;36.25;100942.30;108132;1277;21992;-65
2023/09/19 07:36:02;;;;;;;4.80;3.80;;;;;;;30.47;36.18;100944.21;108183;1288;22460;-59
2023/09/19 07:38:28;;;;;;;8.60;4.10;;;;;;;30.48;36.07;100937.96;108158;1283;22158;-59
2023/09/19 07:41:00;;;;;;;7.30;3.90;;;;;;;30.57;36.15;100938.59;108102;1287;21990;-65
2023/09/19 07:43:26;;;;;;;5.60;3.60;;;;;;;30.70;36.00;100936.05;108106;1288;22003;-59
2023/09/19 07:45:52;;;;;;;5.00;3.10;;;;;;;30.81;35.08;100936.02;108105;1287;21999;-60
2023/09/19 07:48:17;;;;;;;8.20;3.70;;;;;;;30.91;34.88;100933.77;108143;1283;21994;-66
2023/09/19 07:50:43;;;;;;;8.50;3.20;;;;;;;31.06;34.63;100933.79;108089;1288;21996;-65
2023/09/19 07:53:09;;;;;;;4.10;2.90;;;;;;;31.18;33.96;100934.13;108122;1287;21997;-59
2023/09/19 07:55:35;;;;;;;6.80;3.50;;;;;;;31.28;33.69;100932.37;108109;1277;22463;-65
2023/09/19 07:58:00;;;;;;;7.00;4.30;;;;;;;31.35;32.89;100934.24;108097;1288;22004;-65
2023/09/19 08:00:26;;;;;;;7.40;3.50;;;;;;;31.32;32.96;100929.44;108131;1283;21993;-59
2023/09/19 08:02:52;;;;;;;5.60;3.90;;;;;;;31.26;32.24;100933.97;108100;1288;21993;-60
2023/09/19 08:05:18;;;;;;;6.80;4.30;;;;;;;31.23;32.27;100932.77;108146;1287;21987;-60
2023/09/19 08:07:48;;;;;;;6.70;4.50;;;;;;;31.25;32.18;100926.97;108123;1280;21995;-60
2023/09/19 08:10:15;;;;;;;6.50;4.00;;;;;;;31.22;31.72;100925.44;108133;1288;21989;-65
2023/09/19 08:12:47;;;;;;;5.90;4.20;;;;;;;31.17;31.88;100919.19;108171;1287;21995;-60
2023/09/19 08:15:13;;;;;;;7.70;4.70;;;;;;;31.14;31.32;100918.84;108179;1288;23055;-65
2023/09/19 08:17:39;;;;;;;9.30;5.00;;;;;;;31.19;31.44;100924.30;108159;1288;22004;-59
2023/09/19 08:20:05;;;;;;;5.40;4.40;;;;;;;31.30;31.50;100917.43;108149;1286;21990;-60
2023/09/19 08:22:32;;;;;;;9.00;4.70;;;;;;;31.42;30.97;100917.45;108165;1288;21993;-66
2023/09/19 08:24:58;;;;;;;5.30;4.10;;;;;;;31.52;30.77;100915.84;108121;1287;22455;-60
2023/09/19 08:27:26;;;;;;;6.80;4.50;;;;;;;31.64;30.91;100905.23;108119;1287;21996;-66
2023/09/19 08:29:53;;;;;;;5.70;3.40;;;;;;;31.82;30.45;100903.27;108135;1287;21990;-60
2023/09/19 08:32:23;;;;;;;3.50;3.00;;;;;;;31.95;30.51;100904.20;108125;1288;22030;-65
2023/09/19 08:34:50;;;;;;;4.10;2.90;;;;;;;32.03;30.24;100901.79;108129;1288;22461;-60
2023/09/19 08:37:18;;;;;;;5.50;3.10;;;;;;;32.04;29.93;100902.48;108085;1288;21991;-59
2023/09/19 08:39:44;;;;;;;5.20;3.50;;;;;;;32.04;30.08;100900.45;108160;1286;22044;-58
2023/09/19 08:42:11;;;;;;;3.90;2.70;;;;;;;32.07;29.77;100893.64;108137;1287;21982;-66
2023/09/19 08:44:37;;;;;;;3.70;2.80;;;;;;;32.13;29.46;100890.86;108181;1288;21996;-59
2023/09/19 08:47:09;;;;;;;3.20;2.70;;;;;;;32.18;29.64;100893.15;108182;1288;21999;-63
2023/09/19 08:49:57;;;;;;;4.90;2.90;;;;;;;32.25;30.21;100885.73;108111;1287;21990;-59
2023/09/19 08:52:27;;;;;;;6.00;2.70;;;;;;;32.37;30.04;100884.23;108106;1287;21992;-59
2023/09/19 08:54:53;;;;;;;8.50;3.20;;;;;;;32.54;29.53;100882.08;108165;1287;21987;-59
2023/09/19 08:57:21;;;;;;;5.50;2.80;;;;;;;32.63;29.42;100882.09;107916;1283;21995;-59
2023/09/19 08:59:49;;;;;;;4.40;2.70;;;;;;;32.68;29.26;100881.60;107728;1287;22011;-60
2023/09/19 09:02:15;;;;;;;3.90;3.00;;;;;;;32.71;29.41;100877.30;108162;1288;22315;-66
2023/09/19 09:04:41;;;;;;;6.90;3.10;;;;;;;32.80;29.33;100879.69;108171;1283;22000;-66
2023/09/19 09:07:11;;;;;;;5.70;3.20;;;;;;;32.93;29.01;100876.31;108135;1282;21996;-60
2023/09/19 09:09:36;;;;;;;6.10;3.10;;;;;;;32.99;28.99;100876.99;108171;1288;21987;-66
2023/09/19 09:12:02;;;;;;;4.80;2.60;;;;;;;32.96;28.93;100872.88;108101;1280;21992;-66
2023/09/19 09:14:29;;;;;;;4.90;3.00;;;;;;;32.98;29.14;100867.65;108186;1287;21995;-60
2023/09/19 09:16:58;;;;;;;6.00;3.00;;;;;;;33.06;28.85;100874.42;107680;1288;21990;-66
2023/09/19 09:19:24;;;;;;;3.70;2.80;;;;;;;33.09;28.16;100872.00;107999;1288;21979;-60
2023/09/19 09:21:52;;;;;;;3.80;2.90;;;;;;;33.06;28.31;100870.03;108175;1280;22103;-59
2023/09/19 09:24:33;;;;;;;4.40;3.00;;;;;;;33.10;28.32;100869.34;108120;1288;21995;-66
2023/09/19 09:26:59;;;;;;;6.40;3.30;;;;;;;33.16;28.46;100865.13;108139;1287;21996;-60
2023/09/19 09:29:51;;;;;;;3.80;2.90;;;;;;;33.22;28.25;100867.23;107875;1287;21985;-65
2023/09/19 09:32:28;;;;;;;3.70;3.20;;;;;;;33.28;27.68;100868.83;108062;1287;21991;-65
2023/09/19 09:34:58;;;;;;;6.80;3.50;;;;;;;33.32;27.99;100865.42;108168;1287;23746;-65
2023/09/19 09:37:24;;;;;;;7.60;3.00;;;;;;;33.39;28.15;100859.54;108140;1287;22459;-65
2023/09/19 09:40:19;;;;;;;5.30;2.90;;;;;;;33.40;27.64;100866.88;108120;1287;22013;-59
2023/09/19 09:42:49;;;;;;;5.80;3.10;;;;;;;33.40;27.43;100867.66;108142;1287;22011;-59
2023/09/19 09:48:03;;;;;;;5.30;3.10;;;;;;;33.24;27.32;100868.28;108131;1287;21999;-59
2023/09/19 09:50:44;;;;;;;4.50;3.00;;;;;;;33.18;27.65;100855.45;108053;1287;23458;-65
2023/09/19 09:53:27;;;;;;;4.10;2.40;;;;;;;33.31;27.65;100853.08;108018;1287;21995;-66
2023/09/19 09:56:00;;;;;;;5.50;2.80;;;;;;;33.58;28.27;100843.74;108038;1287;21993;-66
2023/09/19 09:58:29;;;;;;;4.00;2.50;;;;;;;33.82;27.41;100835.48;108029;1287;21992;-66
2023/09/19 10:00:59;;;;;;;3.70;2.80;;;;;;;33.84;27.42;100833.69;108693;1287;21988;-66
2023/09/19 10:03:34;;;;;;;5.70;3.00;;;;;;;33.79;27.26;100833.01;108133;1280;23057;-68
2023/09/19 10:06:02;;;;;;;4.40;3.20;;;;;;;33.77;26.86;100837.46;108147;1276;21993;-60
2023/09/19 10:08:31;;;;;;;5.20;3.10;;;;;;;33.74;26.98;100831.02;108141;1287;22021;-67
2023/09/19 10:11:04;;;;;;;5.60;3.10;;;;;;;33.86;27.44;100826.36;107888;1287;22003;-68
2023/09/19 10:13:30;;;;;;;5.00;3.00;;;;;;;34.10;27.75;100819.66;107929;1281;21990;-59
2023/09/19 10:15:58;;;;;;;4.50;2.80;;;;;;;34.45;27.41;100820.68;108176;1287;22311;-60
2023/09/19 10:18:25;;;;;;;5.70;2.90;;;;;;;34.59;26.89;100817.29;107942;1279;21989;-59
2023/09/19 10:20:51;;;;;;;3.90;2.90;;;;;;;34.61;26.87;100815.42;108101;1287;22005;-69
2023/09/19 10:23:22;;;;;;;4.10;2.50;;;;;;;34.65;26.89;100818.61;108118;1287;22030;-66
2023/09/19 10:25:48;;;;;;;5.50;2.80;;;;;;;34.64;26.48;100811.06;108040;1287;22001;-66
2023/09/19 10:28:15;;;;;;;5.50;2.80;;;;;;;34.52;26.45;100811.91;108101;1287;22791;-66
2023/09/19 10:30:46;;;;;;;4.40;2.80;;;;;;;34.44;26.05;100812.76;108036;1287;23058;-59
2023/09/19 10:33:13;;;;;;;3.40;2.60;;;;;;;34.41;26.29;100809.84;109546;1287;23056;-59
2023/09/19 10:35:41;;;;;;;3.30;2.80;;;;;;;34.49;26.47;100808.66;108142;1287;21988;-66
2023/09/19 10:38:08;;;;;;;7.00;2.70;;;;;;;34.58;26.17;100813.46;108115;1280;21987;-66
2023/09/19 10:40:35;;;;;;;4.20;2.60;;;;;;;34.58;26.06;100815.17;108151;1287;22005;-66
2023/09/19 10:43:05;;;;;;;3.80;3.00;;;;;;;34.54;25.61;100814.46;108114;1288;22001;-61
2023/09/19 10:45:34;;;;;;;5.60;2.60;;;;;;;34.52;25.97;100813.62;108117;1287;22964;-64
2023/09/19 10:48:05;;;;;;;6.60;2.80;;;;;;;34.51;25.83;100812.77;108200;1277;22004;-66
2023/09/19 10:50:34;;;;;;;4.50;2.70;;;;;;;34.54;25.82;100820.70;108122;1288;21994;-66
2023/09/19 10:53:04;;;;;;;3.20;2.60;;;;;;;34.59;26.11;100817.77;108117;1283;21989;-59
2023/09/19 10:55:31;;;;;;;3.90;2.60;;;;;;;34.58;25.74;100812.27;108138;1283;23628;-61
2023/09/19 10:58:15;;;;;;;3.30;2.30;;;;;;;34.58;26.05;100809.37;108141;1287;22003;-66
2023/09/19 11:00:54;;;;;;;6.00;2.60;;;;;;;34.60;26.09;100803.29;107734;1288;22003;-65
2023/09/19 11:03:23;;;;;;;9.10;3.00;;;;;;;34.66;25.99;100801.56;108166;1288;21999;-61
2023/09/19 11:06:16;;;;;;;4.60;2.70;;;;;;;34.66;25.72;100804.25;107893;1287;21979;-60
2023/09/19 11:11:39;;;;;;;4.60;2.70;;;;;;;34.77;26.29;100795.20;108135;1288;21988;-66
2023/09/19 11:14:24;;;;;;;3.60;2.60;;;;;;;34.79;25.65;100794.31;108152;1288;21993;-66
2023/09/19 11:17:04;;;;;;;4.60;2.70;;;;;;;34.65;25.78;100794.73;108161;1287;21946;-59
2023/09/19 11:25:39;;;;;;;5.50;2.90;;;;;;;34.43;25.56;100776.83;107955;1287;267865;-67
2023/09/19 11:28:05;;;;;;;5.00;2.80;;;;;;;34.27;25.21;100776.87;108115;1283;22028;-68
2023/09/19 11:30:38;;;;;;;150.90;13.40;;;;;;;34.08;25.53;100772.41;108158;1287;21998;-66